Time,TemperatureF,DewpointF,PressureIn,WindDirection,WindDirectionDegrees,WindSpeedMPH,WindSpeedGustMPH,Humidity,HourlyPrecipIn,Conditions,Clouds,dailyrainin,SoftwareType,DateUTC
2013-11-25 00:00:00,25.1,22.6,30.56,NNE,13,0.0,0.0,90,0.00,,,0.00,Wunderground v.1.15,2013-11-25 05:00:00,
2013-11-25 00:05:00,25.1,22.6,30.56,NNE,13,0.0,0.0,90,0.00,,,0.00,Wunderground v.1.15,2013-11-25 05:05:00,
2013-11-25 00:10:00,25.1,22.6,30.56,NNE,13,0.0,0.0,90,0.00,,,0.00,Wunderground v.1.15,2013-11-25 05:10:00,
2013-11-25 00:15:00,25.0,22.5,30.56,NNE,13,0.0,0.0,90,0.00,,,0.00,Wunderground v.1.15,2013-11-25 05:15:00,
2013-11-25 00:25:00,24.9,22.6,30.56,NNE,13,0.0,0.0,91,0.00,,,0.00,Wunderground v.1.15,2013-11-25 05:25:00,
2013-11-25 00:30:00,24.9,22.6,30.56,NNE,13,0.0,0.0,91,0.00,,,0.00,Wunderground v.1.15,2013-11-25 05:30:00,
2013-11-25 00:35:00,24.9,22.6,30.56,NNE,13,0.0,0.0,91,0.00,,,0.00,Wunderground v.1.15,2013-11-25 05:35:00,
2013-11-25 00:45:00,24.8,22.5,30.56,NNE,13,0.0,0.0,91,0.00,,,0.00,Wunderground v.1.15,2013-11-25 05:45:00,
2013-11-25 00:55:00,24.8,22.5,30.56,NNE,13,0.0,0.0,91,0.00,,,0.00,Wunderground v.1.15,2013-11-25 05:55:00,
2013-11-25 01:00:00,24.8,22.5,30.56,NNE,13,0.0,0.0,91,0.00,,,0.00,Wunderground v.1.15,2013-11-25 06:00:00,
2013-11-25 01:10:00,24.9,22.4,30.56,NNE,13,0.0,1.0,90,0.00,,,0.00,Wunderground v.1.15,2013-11-25 06:10:00,
2013-11-25 01:15:00,25.0,22.2,30.56,NNE,13,0.0,1.0,89,0.00,,,0.00,Wunderground v.1.15,2013-11-25 06:15:00,
2013-11-25 01:20:00,24.9,22.1,30.56,NNE,13,0.0,0.0,89,0.00,,,0.00,Wunderground v.1.15,2013-11-25 06:20:00,
2013-11-25 01:30:00,24.5,21.7,30.56,NNE,13,0.0,0.0,89,0.00,,,0.00,Wunderground v.1.15,2013-11-25 06:30:00,
2013-11-25 01:40:00,24.2,21.4,30.56,NNE,13,0.0,0.0,89,0.00,,,0.00,Wunderground v.1.15,2013-11-25 06:40:00,
2013-11-25 01:45:00,24.1,21.3,30.56,NNE,13,0.0,0.0,89,0.00,,,0.00,Wunderground v.1.15,2013-11-25 06:45:00,
2013-11-25 01:50:00,24.0,21.2,30.56,NNE,13,0.0,0.0,89,0.00,,,0.00,Wunderground v.1.15,2013-11-25 06:50:00,
2013-11-25 02:00:00,23.8,21.0,30.57,NNE,13,0.0,0.0,89,0.00,,,0.00,Wunderground v.1.15,2013-11-25 07:00:00,
2013-11-25 02:05:00,23.6,21.1,30.57,NNE,13,0.0,0.0,90,0.00,,,0.00,Wunderground v.1.15,2013-11-25 07:05:00,
2013-11-25 02:15:00,23.4,20.9,30.57,NNE,13,0.0,0.0,90,0.00,,,0.00,Wunderground v.1.15,2013-11-25 07:15:00,
2013-11-25 02:25:00,23.5,21.0,30.57,NNE,13,0.0,0.0,90,0.00,,,0.00,Wunderground v.1.15,2013-11-25 07:25:00,
2013-11-25 02:30:00,23.5,21.3,30.58,NNE,13,0.0,0.0,91,0.00,,,0.00,Wunderground v.1.15,2013-11-25 07:30:00,
2013-11-25 02:40:00,23.4,20.9,30.57,NNE,13,0.0,0.0,90,0.00,,,0.00,Wunderground v.1.15,2013-11-25 07:40:00,
2013-11-25 02:45:00,23.4,20.9,30.57,NNE,13,0.0,0.0,90,0.00,,,0.00,Wunderground v.1.15,2013-11-25 07:45:00,
2013-11-25 02:55:00,23.8,21.0,30.57,NNE,13,0.0,0.0,89,0.00,,,0.00,Wunderground v.1.15,2013-11-25 07:55:00,
2013-11-25 03:00:00,24.2,20.9,30.57,NNE,29,0.0,0.0,87,0.00,,,0.00,Wunderground v.1.15,2013-11-25 08:00:00,
2013-11-25 03:05:00,24.4,20.5,30.57,NNE,28,0.0,0.0,85,0.00,,,0.00,Wunderground v.1.15,2013-11-25 08:05:00,
2013-11-25 03:15:00,24.8,19.8,30.56,NNE,28,0.0,0.0,81,0.00,,,0.00,Wunderground v.1.15,2013-11-25 08:15:00,
2013-11-25 03:25:00,24.9,19.0,30.56,NNE,30,0.0,0.0,78,0.00,,,0.00,Wunderground v.1.15,2013-11-25 08:25:00,
2013-11-25 03:35:00,25.3,18.5,30.57,NNE,30,0.0,0.0,75,0.00,,,0.00,Wunderground v.1.15,2013-11-25 08:35:00,
2013-11-25 03:45:00,24.9,19.6,30.57,NNE,30,0.0,0.0,80,0.00,,,0.00,Wunderground v.1.15,2013-11-25 08:45:00,
2013-11-25 03:55:00,24.2,19.8,30.57,NNE,30,0.0,0.0,83,0.00,,,0.00,Wunderground v.1.15,2013-11-25 08:55:00,
2013-11-25 04:00:00,23.9,19.8,30.57,NNE,29,0.0,0.0,84,0.00,,,0.00,Wunderground v.1.15,2013-11-25 09:00:00,
2013-11-25 04:05:00,23.6,19.8,30.57,NNE,30,0.0,0.0,85,0.00,,,0.00,Wunderground v.1.15,2013-11-25 09:05:00,
2013-11-25 04:10:00,23.3,19.5,30.57,NNE,30,0.0,0.0,85,0.00,,,0.00,Wunderground v.1.15,2013-11-25 09:10:00,
2013-11-25 04:15:00,23.3,19.2,30.57,NNE,29,0.0,0.0,84,0.00,,,0.00,Wunderground v.1.15,2013-11-25 09:15:00,
2013-11-25 04:25:00,23.5,19.1,30.58,NNE,29,0.0,0.0,83,0.00,,,0.00,Wunderground v.1.15,2013-11-25 09:25:00,
2013-11-25 04:35:00,23.5,19.1,30.57,NNE,29,0.0,0.0,83,0.00,,,0.00,Wunderground v.1.15,2013-11-25 09:35:00,
2013-11-25 04:40:00,23.5,19.1,30.57,NNE,30,0.0,0.0,83,0.00,,,0.00,Wunderground v.1.15,2013-11-25 09:40:00,
2013-11-25 04:45:00,23.7,17.8,30.57,NNE,30,0.0,0.0,78,0.00,,,0.00,Wunderground v.1.15,2013-11-25 09:45:00,
2013-11-25 04:55:00,23.9,17.7,30.57,NNE,29,0.0,0.0,77,0.00,,,0.00,Wunderground v.1.15,2013-11-25 09:55:00,
2013-11-25 05:00:00,23.9,17.1,30.57,NNE,30,0.0,0.0,75,0.00,,,0.00,Wunderground v.1.15,2013-11-25 10:00:00,
2013-11-25 05:05:00,24.0,17.5,30.57,NNE,30,0.0,0.0,76,0.00,,,0.00,Wunderground v.1.15,2013-11-25 10:05:00,
2013-11-25 05:10:00,24.3,16.2,30.57,NNE,22,0.0,1.0,71,0.00,,,0.00,Wunderground v.1.15,2013-11-25 10:10:00,
2013-11-25 05:15:00,24.8,16.4,30.57,NNE,22,0.0,1.0,70,0.00,,,0.00,Wunderground v.1.15,2013-11-25 10:15:00,
2013-11-25 05:25:00,25.4,16.0,30.56,East,81,0.0,0.0,67,0.00,,,0.00,Wunderground v.1.15,2013-11-25 10:25:00,
2013-11-25 05:30:00,25.8,15.6,30.56,East,92,0.0,0.0,65,0.00,,,0.00,Wunderground v.1.15,2013-11-25 10:30:00,
2013-11-25 05:40:00,26.2,15.7,30.56,NNE,24,0.0,0.0,64,0.00,,,0.00,Wunderground v.1.15,2013-11-25 10:40:00,
2013-11-25 05:45:00,26.4,15.5,30.57,ENE,76,0.0,0.0,63,0.00,,,0.00,Wunderground v.1.15,2013-11-25 10:45:00,
2013-11-25 05:55:00,26.2,15.7,30.57,ENE,76,0.0,0.0,64,0.00,,,0.00,Wunderground v.1.15,2013-11-25 10:55:00,
2013-11-25 06:00:00,26.1,16.6,30.57,ENE,75,0.0,0.0,67,0.00,,,0.00,Wunderground v.1.15,2013-11-25 11:00:00,
2013-11-25 06:05:00,25.7,17.3,30.57,ENE,75,0.0,0.0,70,0.00,,,0.00,Wunderground v.1.15,2013-11-25 11:05:00,
2013-11-25 06:10:00,25.4,15.6,30.57,ENE,75,0.0,0.0,66,0.00,,,0.00,Wunderground v.1.15,2013-11-25 11:10:00,
2013-11-25 06:20:00,24.7,17.3,30.57,ENE,76,0.0,0.0,73,0.00,,,0.00,Wunderground v.1.15,2013-11-25 11:20:00,
2013-11-25 06:30:00,24.7,17.3,30.57,ENE,76,0.0,0.0,73,0.00,,,0.00,Wunderground v.1.15,2013-11-25 11:30:00,
2013-11-25 06:35:00,24.9,16.8,30.57,ENE,75,0.0,0.0,71,0.00,,,0.00,Wunderground v.1.15,2013-11-25 11:35:00,
2013-11-25 06:40:00,25.2,16.5,30.57,ENE,75,0.0,0.0,69,0.00,,,0.00,Wunderground v.1.15,2013-11-25 11:40:00,
2013-11-25 06:45:00,25.6,16.5,30.58,ENE,75,0.0,0.0,68,0.00,,,0.00,Wunderground v.1.15,2013-11-25 11:45:00,
2013-11-25 06:50:00,26.0,16.5,30.58,ENE,75,0.0,0.0,67,0.00,,,0.00,Wunderground v.1.15,2013-11-25 11:50:00,
2013-11-25 06:55:00,26.3,16.5,30.58,ENE,75,0.0,0.0,66,0.00,,,0.00,Wunderground v.1.15,2013-11-25 11:55:00,
2013-11-25 07:00:00,26.6,16.8,30.59,ENE,75,0.0,0.0,66,0.00,,,0.00,Wunderground v.1.15,2013-11-25 12:00:00,
2013-11-25 07:10:00,26.7,20.5,30.58,ENE,75,0.0,0.0,77,0.00,,,0.00,Wunderground v.1.15,2013-11-25 12:10:00,
2013-11-25 07:20:00,26.4,17.6,30.58,ENE,65,0.0,0.0,69,0.00,,,0.00,Wunderground v.1.15,2013-11-25 12:20:00,
2013-11-25 07:25:00,26.7,16.9,30.58,ENE,74,0.0,1.0,66,0.00,,,0.00,Wunderground v.1.15,2013-11-25 12:25:00,
2013-11-25 07:30:00,27.0,17.1,30.58,ENE,74,0.0,0.0,66,0.00,,,0.00,Wunderground v.1.15,2013-11-25 12:30:00,
2013-11-25 07:40:00,27.9,16.6,30.58,ENE,69,1.0,2.0,62,0.00,,,0.00,Wunderground v.1.15,2013-11-25 12:40:00,
2013-11-25 07:45:00,28.2,16.5,30.58,ENE,62,2.0,2.0,61,0.00,,,0.00,Wunderground v.1.15,2013-11-25 12:45:00,
2013-11-25 07:55:00,28.4,15.9,30.58,ENE,73,1.0,2.0,59,0.00,,,0.00,Wunderground v.1.15,2013-11-25 12:55:00,
2013-11-25 08:00:00,28.6,15.7,30.58,ENE,65,1.0,1.0,58,0.00,,,0.00,Wunderground v.1.15,2013-11-25 13:00:00,
2013-11-25 08:10:00,30.2,16.4,30.58,East,84,1.0,1.0,56,0.00,,,0.00,Wunderground v.1.15,2013-11-25 13:10:00,
2013-11-25 08:15:00,31.1,16.4,30.59,ESE,107,1.0,1.0,54,0.00,,,0.00,Wunderground v.1.15,2013-11-25 13:15:00,
2013-11-25 08:25:00,31.8,16.2,30.59,East,96,2.0,2.0,52,0.00,,,0.00,Wunderground v.1.15,2013-11-25 13:25:00,
2013-11-25 08:30:00,32.3,15.7,30.58,ESE,109,2.0,4.0,50,0.00,,,0.00,Wunderground v.1.15,2013-11-25 13:30:00,
2013-11-25 08:40:00,32.8,16.2,30.58,ESE,116,3.0,8.0,50,0.00,,,0.00,Wunderground v.1.15,2013-11-25 13:40:00,
2013-11-25 08:45:00,33.1,16.5,30.58,NE,53,3.0,8.0,50,0.00,,,0.00,Wunderground v.1.15,2013-11-25 13:45:00,
2013-11-25 08:50:00,34.1,17.4,30.58,North,355,2.0,4.0,50,0.00,,,0.00,Wunderground v.1.15,2013-11-25 13:50:00,
2013-11-25 08:55:00,34.5,16.3,30.58,ESE,110,2.0,4.0,47,0.00,,,0.00,Wunderground v.1.15,2013-11-25 13:55:00,
2013-11-25 09:05:00,34.4,16.7,30.58,North,350,3.0,3.0,48,0.00,,,0.00,Wunderground v.1.15,2013-11-25 14:05:00,
2013-11-25 09:15:00,35.1,17.8,30.58,North,360,4.0,4.0,49,0.00,,,0.00,Wunderground v.1.15,2013-11-25 14:15:00,
2013-11-25 09:20:00,35.7,18.9,30.58,North,360,3.0,4.0,50,0.00,,,0.00,Wunderground v.1.15,2013-11-25 14:20:00,
2013-11-25 09:25:00,36.0,19.1,30.58,NE,43,3.0,4.0,50,0.00,,,0.00,Wunderground v.1.15,2013-11-25 14:25:00,
2013-11-25 09:30:00,36.5,19.1,30.58,NE,55,3.0,3.0,49,0.00,,,0.00,Wunderground v.1.15,2013-11-25 14:30:00,
2013-11-25 09:40:00,36.9,18.5,30.57,NNE,19,4.0,4.0,47,0.00,,,0.00,Wunderground v.1.15,2013-11-25 14:40:00,
2013-11-25 09:45:00,37.4,18.5,30.57,ENE,63,3.0,4.0,46,0.00,,,0.00,Wunderground v.1.15,2013-11-25 14:45:00,
2013-11-25 09:55:00,37.7,18.8,30.57,East,94,4.0,11.0,46,0.00,,,0.00,Wunderground v.1.15,2013-11-25 14:55:00,
2013-11-25 10:05:00,38.1,20.6,30.57,NE,45,4.0,5.0,49,0.00,,,0.00,Wunderground v.1.15,2013-11-25 15:05:00,
2013-11-25 10:10:00,38.8,19.8,30.57,NNW,342,4.0,4.0,46,0.00,,,0.00,Wunderground v.1.15,2013-11-25 15:10:00,
2013-11-25 10:15:00,39.0,19.4,30.57,NNE,30,4.0,5.0,45,0.00,,,0.00,Wunderground v.1.15,2013-11-25 15:15:00,
2013-11-25 10:25:00,39.5,19.4,30.57,ENE,74,5.0,7.0,44,0.00,,,0.00,Wunderground v.1.15,2013-11-25 15:25:00,
2013-11-25 10:30:00,40.2,19.5,30.57,ENE,74,5.0,9.0,43,0.00,,,0.00,Wunderground v.1.15,2013-11-25 15:30:00,
2013-11-25 10:35:00,40.2,19.5,30.57,NE,40,4.0,9.0,43,0.00,,,0.00,Wunderground v.1.15,2013-11-25 15:35:00,
2013-11-25 10:40:00,40.7,19.4,30.57,NE,51,4.0,4.0,42,0.00,,,0.00,Wunderground v.1.15,2013-11-25 15:40:00,
2013-11-25 10:45:00,41.1,18.0,30.57,East,92,5.0,7.0,39,0.00,,,0.00,Wunderground v.1.15,2013-11-25 15:45:00,
2013-11-25 10:55:00,40.5,18.6,30.56,NE,38,5.0,5.0,41,0.00,,,0.00,Wunderground v.1.15,2013-11-25 15:55:00,
2013-11-25 11:00:00,41.1,19.7,30.56,North,360,5.0,5.0,42,0.00,,,0.00,Wunderground v.1.15,2013-11-25 16:00:00,
2013-11-25 11:10:00,42.3,19.7,30.55,North,355,4.0,4.0,40,0.00,,,0.00,Wunderground v.1.15,2013-11-25 16:10:00,
2013-11-25 11:15:00,42.6,18.7,30.55,NE,42,4.0,10.0,38,0.00,,,0.00,Wunderground v.1.15,2013-11-25 16:15:00,
2013-11-25 11:20:00,42.4,18.6,30.55,NNE,19,5.0,9.0,38,0.00,,,0.00,Wunderground v.1.15,2013-11-25 16:20:00,
2013-11-25 11:25:00,42.4,18.6,30.55,NNE,19,5.0,9.0,38,0.00,,,0.00,Wunderground v.1.15,2013-11-25 16:25:00,
2013-11-25 11:30:00,42.7,18.8,30.55,NE,39,4.0,4.0,38,0.00,,,0.00,Wunderground v.1.15,2013-11-25 16:30:00,
2013-11-25 11:40:00,43.2,19.9,30.54,NNE,33,4.0,8.0,39,0.00,,,0.00,Wunderground v.1.15,2013-11-25 16:40:00,
2013-11-25 11:45:00,43.0,19.7,30.53,East,95,5.0,8.0,39,0.00,,,0.00,Wunderground v.1.15,2013-11-25 16:45:00,
2013-11-25 11:50:00,43.2,19.9,30.53,NE,45,5.0,5.0,39,0.00,,,0.00,Wunderground v.1.15,2013-11-25 16:50:00,
2013-11-25 12:00:00,43.8,20.4,30.52,North,11,4.0,5.0,39,0.00,,,0.00,Wunderground v.1.15,2013-11-25 17:00:00,
2013-11-25 12:10:00,44.5,20.4,30.51,East,91,4.0,4.0,38,0.00,,,0.00,Wunderground v.1.15,2013-11-25 17:10:00,
2013-11-25 12:15:00,44.2,21.4,30.51,ENE,65,4.0,4.0,40,0.00,,,0.00,Wunderground v.1.15,2013-11-25 17:15:00,
2013-11-25 12:20:00,44.1,21.9,30.50,East,90,4.0,4.0,41,0.00,,,0.00,Wunderground v.1.15,2013-11-25 17:20:00,
2013-11-25 12:25:00,43.8,22.2,30.50,NE,51,4.0,6.0,42,0.00,,,0.00,Wunderground v.1.15,2013-11-25 17:25:00,
2013-11-25 12:30:00,44.4,23.8,30.49,NE,56,4.0,4.0,44,0.00,,,0.00,Wunderground v.1.15,2013-11-25 17:30:00,
2013-11-25 12:40:00,45.0,23.8,30.48,East,86,5.0,7.0,43,0.00,,,0.00,Wunderground v.1.15,2013-11-25 17:40:00,
2013-11-25 12:45:00,45.9,24.6,30.48,NE,42,5.0,7.0,43,0.00,,,0.00,Wunderground v.1.15,2013-11-25 17:45:00,
2013-11-25 12:55:00,45.7,23.9,30.47,ESE,109,4.0,4.0,42,0.00,,,0.00,Wunderground v.1.15,2013-11-25 17:55:00,
2013-11-25 13:00:00,45.5,24.3,30.47,NNE,19,3.0,7.0,43,0.00,,,0.00,Wunderground v.1.15,2013-11-25 18:00:00,
2013-11-25 13:10:00,46.1,24.8,30.47,SE,140,4.0,6.0,43,0.00,,,0.00,Wunderground v.1.15,2013-11-25 18:10:00,
2013-11-25 13:15:00,46.4,24.5,30.47,ESE,105,4.0,7.0,42,0.00,,,0.00,Wunderground v.1.15,2013-11-25 18:15:00,
2013-11-25 13:25:00,45.6,24.9,30.46,East,101,5.0,6.0,44,0.00,,,0.00,Wunderground v.1.15,2013-11-25 18:25:00,
2013-11-25 13:30:00,46.3,25.0,30.46,ESE,113,5.0,7.0,43,0.00,,,0.00,Wunderground v.1.15,2013-11-25 18:30:00,
2013-11-25 13:40:00,48.1,25.5,30.46,NE,48,4.0,8.0,41,0.00,,,0.00,Wunderground v.1.15,2013-11-25 18:40:00,
2013-11-25 13:50:00,47.5,24.9,30.46,East,90,4.0,4.0,41,0.00,,,0.00,Wunderground v.1.15,2013-11-25 18:50:00,
2013-11-25 13:55:00,47.8,25.8,30.46,ESE,111,4.0,4.0,42,0.00,,,0.00,Wunderground v.1.15,2013-11-25 18:55:00,
2013-11-25 14:00:00,47.1,25.2,30.46,SE,140,4.0,6.0,42,0.00,,,0.00,Wunderground v.1.15,2013-11-25 19:00:00,
2013-11-25 14:10:00,46.9,25.5,30.45,ESE,105,4.0,4.0,43,0.00,,,0.00,Wunderground v.1.15,2013-11-25 19:10:00,
2013-11-25 14:15:00,46.6,24.7,30.45,NE,46,4.0,4.0,42,0.00,,,0.00,Wunderground v.1.15,2013-11-25 19:15:00,
2013-11-25 14:20:00,46.9,26.1,30.45,East,101,4.0,4.0,44,0.00,,,0.00,Wunderground v.1.15,2013-11-25 19:20:00,
2013-11-25 14:25:00,47.1,25.7,30.45,North,355,2.0,4.0,43,0.00,,,0.00,Wunderground v.1.15,2013-11-25 19:25:00,
2013-11-25 14:30:00,47.1,25.2,30.45,NNE,14,3.0,4.0,42,0.00,,,0.00,Wunderground v.1.15,2013-11-25 19:30:00,
2013-11-25 14:40:00,46.7,25.4,30.44,North,5,5.0,5.0,43,0.00,,,0.00,Wunderground v.1.15,2013-11-25 19:40:00,
2013-11-25 14:45:00,46.8,26.0,30.44,NNE,22,4.0,5.0,44,0.00,,,0.00,Wunderground v.1.15,2013-11-25 19:45:00,
2013-11-25 14:55:00,47.2,25.8,30.44,NNE,24,4.0,7.0,43,0.00,,,0.00,Wunderground v.1.15,2013-11-25 19:55:00,
2013-11-25 15:00:00,47.2,25.8,30.44,NE,42,3.0,3.0,43,0.00,,,0.00,Wunderground v.1.15,2013-11-25 20:00:00,
2013-11-25 15:05:00,47.2,25.8,30.44,ENE,70,3.0,3.0,43,0.00,,,0.00,Wunderground v.1.15,2013-11-25 20:05:00,
2013-11-25 15:10:00,47.1,25.7,30.43,East,79,3.0,3.0,43,0.00,,,0.00,Wunderground v.1.15,2013-11-25 20:10:00,
2013-11-25 15:15:00,47.1,25.7,30.43,East,98,3.0,3.0,43,0.00,,,0.00,Wunderground v.1.15,2013-11-25 20:15:00,
2013-11-25 15:25:00,47.7,26.3,30.43,NE,39,4.0,5.0,43,0.00,,,0.00,Wunderground v.1.15,2013-11-25 20:25:00,
2013-11-25 15:30:00,47.9,26.5,30.43,NE,53,4.0,4.0,43,0.00,,,0.00,Wunderground v.1.15,2013-11-25 20:30:00,
2013-11-25 15:35:00,48.1,26.6,30.44,NE,49,3.0,4.0,43,0.00,,,0.00,Wunderground v.1.15,2013-11-25 20:35:00,
2013-11-25 15:45:00,47.5,26.6,30.44,East,99,3.0,5.0,44,0.00,,,0.00,Wunderground v.1.15,2013-11-25 20:45:00,
2013-11-25 15:50:00,47.4,26.6,30.43,ENE,61,2.0,2.0,44,0.00,,,0.00,Wunderground v.1.15,2013-11-25 20:50:00,
2013-11-25 15:55:00,47.4,27.1,30.43,ESE,117,2.0,2.0,45,0.00,,,0.00,Wunderground v.1.15,2013-11-25 20:55:00,
2013-11-25 16:00:00,47.3,27.0,30.43,ESE,109,2.0,2.0,45,0.00,,,0.00,Wunderground v.1.15,2013-11-25 21:00:00,
2013-11-25 16:10:00,47.4,27.1,30.43,East,85,3.0,3.0,45,0.00,,,0.00,Wunderground v.1.15,2013-11-25 21:10:00,
2013-11-25 16:15:00,47.5,27.7,30.43,East,90,2.0,3.0,46,0.00,,,0.00,Wunderground v.1.15,2013-11-25 21:15:00,
2013-11-25 16:25:00,47.6,27.3,30.43,ENE,61,3.0,3.0,45,0.00,,,0.00,Wunderground v.1.15,2013-11-25 21:25:00,
2013-11-25 16:30:00,47.4,27.6,30.43,ENE,63,3.0,3.0,46,0.00,,,0.00,Wunderground v.1.15,2013-11-25 21:30:00,
2013-11-25 16:40:00,47.3,28.1,30.43,NNE,14,2.0,2.0,47,0.00,,,0.00,Wunderground v.1.15,2013-11-25 21:40:00,
2013-11-25 16:45:00,47.2,28.5,30.43,NNE,19,2.0,3.0,48,0.00,,,0.00,Wunderground v.1.15,2013-11-25 21:45:00,
2013-11-25 16:50:00,47.1,28.9,30.42,ENE,66,1.0,2.0,49,0.00,,,0.00,Wunderground v.1.15,2013-11-25 21:50:00,
2013-11-25 16:55:00,47.0,28.8,30.42,NNE,26,1.0,3.0,49,0.00,,,0.00,Wunderground v.1.15,2013-11-25 21:55:00,
2013-11-25 17:00:00,46.9,28.7,30.42,ENE,57,2.0,2.0,49,0.00,,,0.00,Wunderground v.1.15,2013-11-25 22:00:00,
2013-11-25 17:10:00,46.8,29.1,30.42,NNE,32,2.0,2.0,50,0.00,,,0.00,Wunderground v.1.15,2013-11-25 22:10:00,
2013-11-25 17:15:00,46.7,29.0,30.42,ENE,63,2.0,2.0,50,0.00,,,0.00,Wunderground v.1.15,2013-11-25 22:15:00,
2013-11-25 17:25:00,46.5,28.8,30.42,NE,49,2.0,2.0,50,0.00,,,0.00,Wunderground v.1.15,2013-11-25 22:25:00,
2013-11-25 17:30:00,46.4,28.8,30.43,NE,36,1.0,1.0,50,0.00,,,0.00,Wunderground v.1.15,2013-11-25 22:30:00,
2013-11-25 17:40:00,46.4,29.2,30.42,NE,51,1.0,2.0,51,0.00,,,0.00,Wunderground v.1.15,2013-11-25 22:40:00,
2013-11-25 17:45:00,46.3,29.6,30.42,NE,55,1.0,2.0,52,0.00,,,0.00,Wunderground v.1.15,2013-11-25 22:45:00,
2013-11-25 17:50:00,46.2,29.5,30.42,NE,34,1.0,1.0,52,0.00,,,0.00,Wunderground v.1.15,2013-11-25 22:50:00,
2013-11-25 17:55:00,46.2,29.5,30.43,NE,40,1.0,1.0,52,0.00,,,0.00,Wunderground v.1.15,2013-11-25 22:55:00,
2013-11-25 18:00:00,46.1,29.0,30.43,ENE,67,1.0,2.0,51,0.00,,,0.00,Wunderground v.1.15,2013-11-25 23:00:00,
2013-11-25 18:10:00,46.2,29.5,30.43,NE,53,1.0,1.0,52,0.00,,,0.00,Wunderground v.1.15,2013-11-25 23:10:00,
2013-11-25 18:15:00,46.1,29.4,30.43,NE,53,1.0,1.0,52,0.00,,,0.00,Wunderground v.1.15,2013-11-25 23:15:00,
2013-11-25 18:20:00,46.1,29.4,30.42,ENE,63,2.0,5.0,52,0.00,,,0.00,Wunderground v.1.15,2013-11-25 23:20:00,
2013-11-25 18:30:00,46.1,29.4,30.42,NE,38,2.0,2.0,52,0.00,,,0.00,Wunderground v.1.15,2013-11-25 23:30:00,
2013-11-25 18:40:00,46.0,29.8,30.42,NE,41,2.0,2.0,53,0.00,,,0.00,Wunderground v.1.15,2013-11-25 23:40:00,
2013-11-25 18:45:00,46.0,29.8,30.42,ENE,78,1.0,2.0,53,0.00,,,0.00,Wunderground v.1.15,2013-11-25 23:45:00,
2013-11-25 18:55:00,46.0,29.8,30.42,NE,51,2.0,2.0,53,0.00,,,0.00,Wunderground v.1.15,2013-11-25 23:55:00,
2013-11-25 19:00:00,46.0,29.8,30.42,ENE,59,1.0,1.0,53,0.00,,,0.00,Wunderground v.1.15,2013-11-26 00:00:00,
2013-11-25 19:05:00,46.0,30.3,30.42,East,82,1.0,1.0,54,0.00,,,0.00,Wunderground v.1.15,2013-11-26 00:05:00,
2013-11-25 19:10:00,46.0,30.3,30.42,ENE,71,1.0,1.0,54,0.00,,,0.00,Wunderground v.1.15,2013-11-26 00:10:00,
2013-11-25 19:20:00,45.9,30.2,30.42,NNE,26,1.0,1.0,54,0.00,,,0.00,Wunderground v.1.15,2013-11-26 00:20:00,
2013-11-25 19:25:00,45.8,30.1,30.41,NE,56,1.0,2.0,54,0.00,,,0.00,Wunderground v.1.15,2013-11-26 00:25:00,
2013-11-25 19:30:00,45.7,30.0,30.41,NE,49,1.0,1.0,54,0.00,,,0.00,Wunderground v.1.15,2013-11-26 00:30:00,
2013-11-25 19:40:00,45.5,29.3,30.41,ENE,75,2.0,3.0,53,0.00,,,0.00,Wunderground v.1.15,2013-11-26 00:40:00,
2013-11-25 19:45:00,45.4,29.3,30.41,NNE,24,2.0,3.0,53,0.00,,,0.00,Wunderground v.1.15,2013-11-26 00:45:00,
2013-11-25 19:55:00,45.3,29.2,30.40,NE,46,2.0,3.0,53,0.00,,,0.00,Wunderground v.1.15,2013-11-26 00:55:00,
2013-11-25 20:00:00,45.2,29.1,30.40,ENE,64,3.0,3.0,53,0.00,,,0.00,Wunderground v.1.15,2013-11-26 01:00:00,
2013-11-25 20:10:00,45.0,28.4,30.39,NE,48,2.0,2.0,52,0.00,,,0.00,Wunderground v.1.15,2013-11-26 01:10:00,
2013-11-25 20:15:00,45.0,28.4,30.40,East,92,2.0,2.0,52,0.00,,,0.00,Wunderground v.1.15,2013-11-26 01:15:00,
2013-11-25 20:25:00,44.9,28.3,30.40,NE,55,2.0,3.0,52,0.00,,,0.00,Wunderground v.1.15,2013-11-26 01:25:00,
2013-11-25 20:30:00,44.8,28.2,30.40,NE,46,1.0,2.0,52,0.00,,,0.00,Wunderground v.1.15,2013-11-26 01:30:00,
2013-11-25 20:40:00,44.7,27.7,30.40,NE,52,3.0,3.0,51,0.00,,,0.00,Wunderground v.1.15,2013-11-26 01:40:00,
2013-11-25 20:45:00,44.6,28.0,30.39,NNE,32,2.0,3.0,52,0.00,,,0.00,Wunderground v.1.15,2013-11-26 01:45:00,
2013-11-25 20:55:00,44.6,27.6,30.39,NNE,28,2.0,3.0,51,0.00,,,0.00,Wunderground v.1.15,2013-11-26 01:55:00,
2013-11-25 21:00:00,44.5,27.5,30.38,NE,51,2.0,2.0,51,0.00,,,0.00,Wunderground v.1.15,2013-11-26 02:00:00,
2013-11-25 21:05:00,44.5,28.0,30.38,NNE,27,2.0,4.0,52,0.00,,,0.00,Wunderground v.1.15,2013-11-26 02:05:00,
2013-11-25 21:15:00,44.4,27.9,30.38,ENE,67,3.0,3.0,52,0.00,,,0.00,Wunderground v.1.15,2013-11-26 02:15:00,
2013-11-25 21:25:00,44.3,27.8,30.36,ENE,63,3.0,4.0,52,0.00,,,0.00,Wunderground v.1.15,2013-11-26 02:25:00,
2013-11-25 21:30:00,44.3,27.8,30.36,ENE,76,2.0,2.0,52,0.00,,,0.00,Wunderground v.1.15,2013-11-26 02:30:00,
2013-11-25 21:40:00,44.4,28.3,30.36,NE,49,2.0,2.0,53,0.00,,,0.00,Wunderground v.1.15,2013-11-26 02:40:00,
2013-11-25 21:45:00,44.3,28.2,30.37,NE,45,2.0,9.0,53,0.00,,,0.00,Wunderground v.1.15,2013-11-26 02:45:00,
2013-11-25 21:55:00,44.3,28.2,30.36,NNE,22,2.0,2.0,53,0.00,,,0.00,Wunderground v.1.15,2013-11-26 02:55:00,
2013-11-25 22:00:00,44.4,28.3,30.36,NE,55,3.0,4.0,53,0.00,,,0.00,Wunderground v.1.15,2013-11-26 03:00:00,
2013-11-25 22:10:00,44.4,28.3,30.36,East,79,2.0,4.0,53,0.00,,,0.00,Wunderground v.1.15,2013-11-26 03:10:00,
2013-11-25 22:20:00,44.4,28.3,30.35,East,82,2.0,2.0,53,0.00,,,0.00,Wunderground v.1.15,2013-11-26 03:20:00,
2013-11-25 22:25:00,44.4,28.3,30.35,East,89,2.0,2.0,53,0.00,,,0.00,Wunderground v.1.15,2013-11-26 03:25:00,
2013-11-25 22:30:00,44.5,28.4,30.35,East,89,2.0,2.0,53,0.00,,,0.00,Wunderground v.1.15,2013-11-26 03:30:00,
2013-11-25 22:40:00,44.5,28.9,30.34,ENE,59,2.0,4.0,54,0.00,,,0.00,Wunderground v.1.15,2013-11-26 03:40:00,
2013-11-25 22:45:00,44.5,28.9,30.34,NE,54,2.0,4.0,54,0.00,,,0.00,Wunderground v.1.15,2013-11-26 03:45:00,
2013-11-25 22:50:00,44.5,28.9,30.35,East,84,2.0,4.0,54,0.00,,,0.00,Wunderground v.1.15,2013-11-26 03:50:00,
2013-11-25 22:55:00,44.4,28.8,30.35,ENE,72,2.0,4.0,54,0.00,,,0.00,Wunderground v.1.15,2013-11-26 03:55:00,
2013-11-25 23:00:00,44.4,28.8,30.34,East,83,1.0,1.0,54,0.00,,,0.00,Wunderground v.1.15,2013-11-26 04:00:00,
2013-11-25 23:10:00,44.3,29.1,30.33,East,83,2.0,3.0,55,0.00,,,0.00,Wunderground v.1.15,2013-11-26 04:10:00,
2013-11-25 23:15:00,44.3,29.1,30.33,East,86,2.0,3.0,55,0.00,,,0.00,Wunderground v.1.15,2013-11-26 04:15:00,
2013-11-25 23:25:00,44.4,29.7,30.32,East,87,1.0,2.0,56,0.00,,,0.00,Wunderground v.1.15,2013-11-26 04:25:00,
2013-11-25 23:30:00,44.4,29.7,30.32,ENE,67,1.0,3.0,56,0.00,,,0.00,Wunderground v.1.15,2013-11-26 04:30:00,
2013-11-25 23:35:00,44.5,29.8,30.31,NE,53,2.0,6.0,56,0.00,,,0.00,Wunderground v.1.15,2013-11-26 04:35:00,
2013-11-25 23:40:00,44.7,30.0,30.31,ENE,78,4.0,6.0,56,0.00,,,0.00,Wunderground v.1.15,2013-11-26 04:40:00,
2013-11-25 23:45:00,44.7,30.0,30.31,SE,130,4.0,6.0,56,0.00,,,0.00,Wunderground v.1.15,2013-11-26 04:45:00,
2013-11-25 23:55:00,44.6,29.9,30.31,East,80,2.0,2.0,56,0.00,,,0.00,Wunderground v.1.15,2013-11-26 04:55:00,